Hovedside
METAR-TAF:

METAR-TAF

Lufthavner :

Kemi, Finland

Kemi-Torneå lufthavn

breddegrad: 65-47N, lengdegrad: 024-35E, høyde over havet: 15 m

Gjeldene værobservasjon

Denne rapporten ble laget for 10 minutter siden, klokken 08:20 UTC
Vind 3 kt fra Nordøst
Temperatur -19°C
Luftfuktighet 84%
Trykk 1016 hPa
Sikt 10 km eller mer
ingen skyer under 1500 m og ingen bygeskyer

METAR: EFKE 220820Z AUTO 05003KT CAVOK M19/M21 Q1016

Tid: 10:30 (08:30 UTC)

Varsel

Denne rapporten ble laget for 3 timer og 6 minutter siden, klokken 05:24 UTC
Varsel gyldig fra 22. klokken 06 UTC til 22. klokken 15 UTC
Vind 4 kt fra Nord-nordøst
Sikt 10 km eller mer
Spredte skyer i en høyde av 6000 ft
lett snø
Sannsynlighet 40%
fra 22. klokken 06 UTC til 22. klokken 08 UTC
Sikt: 4000 m

TAF: EFKE 220524Z 2206/2215 02004KT 9999 -SN SCT060 PROB40 2206/2208 4000

Værobservasjoner og værvarsel for over 4000 flyplasser (METAR- og TAF-rapporter).

Tilgjengelige stasjoner er representert av de røde og gule prikkene på kartet.

Hold musepekeren over prikken for å se navnet på stasjonen.

Klikk så for å se værobservasjoner og -varsler.

For å forandre kartet kan du klikke på den grønne knappen med svart kryss for å zoome inn, på den grønne knappen med strek for å zoome ut, eller på de grønne pilene for å se tilstøtende kart.


METAR-TAF: